sensor_id;sensor_type;location;lat;lon;timestamp;pressure;altitude;pressure_sealevel;temperature;humidity
41636;BME280;27623;51.966;4.602;2022-08-05T00:00:21;-19428.72;;;22.63;73.25
41636;BME280;27623;51.966;4.602;2022-08-05T00:02:47;-19428.03;;;22.60;73.50
41636;BME280;27623;51.966;4.602;2022-08-05T00:05:12;-19425.75;;;22.52;73.63
41636;BME280;27623;51.966;4.602;2022-08-05T00:07:38;-19427.88;;;22.60;73.33
41636;BME280;27623;51.966;4.602;2022-08-05T00:10:04;-19427.75;;;22.59;73.66
41636;BME280;27623;51.966;4.602;2022-08-05T00:12:31;-19426.59;;;22.55;73.79
41636;BME280;27623;51.966;4.602;2022-08-05T00:14:57;-19427.75;;;22.59;73.71
41636;BME280;27623;51.966;4.602;2022-08-05T00:17:22;-19425.63;;;22.52;73.94
41636;BME280;27623;51.966;4.602;2022-08-05T00:19:48;-19425.03;;;22.50;73.95
41636;BME280;27623;51.966;4.602;2022-08-05T00:22:13;-19429.84;;;22.67;73.34
41636;BME280;27623;51.966;4.602;2022-08-05T00:24:39;-19424.34;;;22.47;73.78
41636;BME280;27623;51.966;4.602;2022-08-05T00:27:05;-19426.47;;;22.55;73.80
41636;BME280;27623;51.966;4.602;2022-08-05T00:29:30;-19428.16;;;22.61;74.03
41636;BME280;27623;51.966;4.602;2022-08-05T00:31:56;-19421.50;;;22.37;74.58
41636;BME280;27623;51.966;4.602;2022-08-05T00:34:22;-19422.34;;;22.40;74.81
41636;BME280;27623;51.966;4.602;2022-08-05T00:36:48;-19424.47;;;22.48;74.23
41636;BME280;27623;51.966;4.602;2022-08-05T00:39:14;-19423.50;;;22.44;74.15
41636;BME280;27623;51.966;4.602;2022-08-05T00:41:44;-19424.47;;;22.48;74.38
41636;BME280;27623;51.966;4.602;2022-08-05T00:44:10;-19422.63;;;22.41;74.71
41636;BME280;27623;51.966;4.602;2022-08-05T00:46:36;-19420.50;;;22.34;75.37
41636;BME280;27623;51.966;4.602;2022-08-05T00:49:02;-19415.69;;;22.16;75.82
41636;BME280;27623;51.966;4.602;2022-08-05T00:51:30;-19414.84;;;22.13;76.35
41636;BME280;27623;51.966;4.602;2022-08-05T00:53:56;-19419.38;;;22.29;75.42
41636;BME280;27623;51.966;4.602;2022-08-05T00:56:21;-19417.41;;;22.22;75.79
41636;BME280;27623;51.966;4.602;2022-08-05T00:58:47;-19415.28;;;22.15;76.11
41636;BME280;27623;51.966;4.602;2022-08-05T01:01:13;-19411.59;;;22.02;76.91
41636;BME280;27623;51.966;4.602;2022-08-05T01:03:42;-19412.28;;;22.04;76.52
41636;BME280;27623;51.966;4.602;2022-08-05T01:06:08;-19412.44;;;22.05;76.77
41636;BME280;27623;51.966;4.602;2022-08-05T01:08:34;-19413.13;;;22.07;75.56
41636;BME280;27623;51.966;4.602;2022-08-05T01:11:10;-19408.03;;;21.89;76.58
41636;BME280;27623;51.966;4.602;2022-08-05T01:16:33;-19407.88;;;21.88;76.57
41636;BME280;27623;51.966;4.602;2022-08-05T01:22:44;-19410.88;;;21.99;76.00
41636;BME280;27623;51.966;4.602;2022-08-05T01:24:51;-19408.88;;;21.92;75.61
41636;BME280;27623;51.966;4.602;2022-08-05T01:27:53;-19407.03;;;21.85;75.43
41636;BME280;27623;51.966;4.602;2022-08-05T01:30:28;-19406.75;;;21.84;75.55
41636;BME280;27623;51.966;4.602;2022-08-05T01:32:59;-19406.47;;;21.83;75.97
41636;BME280;27623;51.966;4.602;2022-08-05T01:35:29;-19400.81;;;21.63;77.25
41636;BME280;27623;51.966;4.602;2022-08-05T01:37:57;-19403.06;;;21.71;76.65
41636;BME280;27623;51.966;4.602;2022-08-05T01:40:28;-19406.31;;;21.83;75.71
41636;BME280;27623;51.966;4.602;2022-08-05T01:42:58;-19410.44;;;21.98;74.95
41636;BME280;27623;51.966;4.602;2022-08-05T01:45:26;-19408.03;;;21.89;75.25
41636;BME280;27623;51.966;4.602;2022-08-05T01:47:53;-19409.31;;;21.93;74.54
41636;BME280;27623;51.966;4.602;2022-08-05T01:50:30;-19408.19;;;21.89;74.93
41636;BME280;27623;51.966;4.602;2022-08-05T01:53:02;-19406.63;;;21.84;74.68
41636;BME280;27623;51.966;4.602;2022-08-05T01:55:31;-19403.91;;;21.74;74.96
41636;BME280;27623;51.966;4.602;2022-08-05T01:57:57;-19404.50;;;21.76;75.00
41636;BME280;27623;51.966;4.602;2022-08-05T02:00:24;-19401.94;;;21.67;75.05
41636;BME280;27623;51.966;4.602;2022-08-05T02:03:33;-19404.06;;;21.75;74.97
41636;BME280;27623;51.966;4.602;2022-08-05T02:06:01;-19401.50;;;21.66;75.19
41636;BME280;27623;51.966;4.602;2022-08-05T02:08:29;-19401.38;;;21.65;75.57
41636;BME280;27623;51.966;4.602;2022-08-05T02:11:09;-19398.38;;;21.54;76.05
41636;BME280;27623;51.966;4.602;2022-08-05T02:13:52;-19401.78;;;21.67;74.91
41636;BME280;27623;51.966;4.602;2022-08-05T02:17:00;-19399.94;;;21.60;75.15
41636;BME280;27623;51.966;4.602;2022-08-05T02:19:33;-19394.41;;;21.40;76.20
41636;BME280;27623;51.966;4.602;2022-08-05T02:22:22;-19391.72;;;21.31;77.25
41636;BME280;27623;51.966;4.602;2022-08-05T02:24:52;-19394.84;;;21.42;76.78
41636;BME280;27623;51.966;4.602;2022-08-05T02:27:20;-19393.16;;;21.36;77.17
41636;BME280;27623;51.966;4.602;2022-08-05T02:29:48;-19393.84;;;21.38;76.89
41636;BME280;27623;51.966;4.602;2022-08-05T02:32:17;-19390.03;;;21.24;77.69
41636;BME280;27623;51.966;4.602;2022-08-05T02:34:44;-19390.44;;;21.26;77.76
41636;BME280;27623;51.966;4.602;2022-08-05T02:37:11;-19389.59;;;21.23;77.38
41636;BME280;27623;51.966;4.602;2022-08-05T02:39:39;-19390.16;;;21.25;77.51
41636;BME280;27623;51.966;4.602;2022-08-05T02:42:07;-19393.84;;;21.38;77.13
41636;BME280;27623;51.966;4.602;2022-08-05T02:44:35;-19391.88;;;21.31;77.23
41636;BME280;27623;51.966;4.602;2022-08-05T02:47:04;-19392.56;;;21.34;77.47
41636;BME280;27623;51.966;4.602;2022-08-05T02:49:33;-19392.28;;;21.33;76.82
41636;BME280;27623;51.966;4.602;2022-08-05T02:52:00;-19390.31;;;21.25;77.07
41636;BME280;27623;51.966;4.602;2022-08-05T02:54:27;-19390.59;;;21.26;77.51
41636;BME280;27623;51.966;4.602;2022-08-05T02:56:53;-19385.19;;;21.07;78.67
41636;BME280;27623;51.966;4.602;2022-08-05T02:59:19;-19383.78;;;21.02;78.55
41636;BME280;27623;51.966;4.602;2022-08-05T03:01:47;-19386.63;;;21.12;78.24
41636;BME280;27623;51.966;4.602;2022-08-05T03:04:17;-19387.03;;;21.14;78.21
41636;BME280;27623;51.966;4.602;2022-08-05T03:06:47;-19383.34;;;21.01;78.55
41636;BME280;27623;51.966;4.602;2022-08-05T03:09:13;-19379.53;;;20.87;79.43
41636;BME280;27623;51.966;4.602;2022-08-05T03:11:42;-19379.53;;;20.87;79.42
41636;BME280;27623;51.966;4.602;2022-08-05T03:14:08;-19383.78;;;21.02;79.12
41636;BME280;27623;51.966;4.602;2022-08-05T03:16:34;-19381.09;;;20.92;79.15
41636;BME280;27623;51.966;4.602;2022-08-05T03:19:00;-19382.22;;;20.97;78.91
41636;BME280;27623;51.966;4.602;2022-08-05T03:21:26;-19382.78;;;20.99;79.29
41636;BME280;27623;51.966;4.602;2022-08-05T03:23:52;-19379.94;;;20.88;79.71
41636;BME280;27623;51.966;4.602;2022-08-05T03:26:18;-19381.22;;;20.93;79.20
41636;BME280;27623;51.966;4.602;2022-08-05T03:28:44;-19383.63;;;21.02;78.23
41636;BME280;27623;51.966;4.602;2022-08-05T03:31:09;-19385.34;;;21.08;77.96
41636;BME280;27623;51.966;4.602;2022-08-05T03:33:35;-19381.78;;;20.95;78.41
41636;BME280;27623;51.966;4.602;2022-08-05T03:36:01;-19378.66;;;20.84;78.82
41636;BME280;27623;51.966;4.602;2022-08-05T03:38:27;-19377.53;;;20.80;79.20
41636;BME280;27623;51.966;4.602;2022-08-05T03:40:52;-19375.97;;;20.74;78.99
41636;BME280;27623;51.966;4.602;2022-08-05T03:43:20;-19377.38;;;20.79;79.25
41636;BME280;27623;51.966;4.602;2022-08-05T03:45:49;-19380.22;;;20.89;78.01
41636;BME280;27623;51.966;4.602;2022-08-05T03:48:15;-19382.78;;;20.99;77.50
41636;BME280;27623;51.966;4.602;2022-08-05T03:50:50;-19380.94;;;20.92;77.62
41636;BME280;27623;51.966;4.602;2022-08-05T03:53:36;-19374.41;;;20.69;78.70
41636;BME280;27623;51.966;4.602;2022-08-05T03:56:08;-19380.22;;;20.89;78.05
41636;BME280;27623;51.966;4.602;2022-08-05T03:58:36;-19376.53;;;20.76;78.35
41636;BME280;27623;51.966;4.602;2022-08-05T04:01:03;-19376.25;;;20.75;79.10
41636;BME280;27623;51.966;4.602;2022-08-05T04:03:33;-19375.13;;;20.71;78.80
41636;BME280;27623;51.966;4.602;2022-08-05T04:06:03;-19375.41;;;20.72;78.58
41636;BME280;27623;51.966;4.602;2022-08-05T04:08:31;-19373.41;;;20.65;78.31
41636;BME280;27623;51.966;4.602;2022-08-05T04:10:58;-19372.84;;;20.63;78.82
41636;BME280;27623;51.966;4.602;2022-08-05T04:13:24;-19375.41;;;20.72;78.61
41636;BME280;27623;51.966;4.602;2022-08-05T04:15:52;-19368.72;;;20.48;79.47
41636;BME280;27623;51.966;4.602;2022-08-05T04:18:22;-19371.72;;;20.59;79.08
41636;BME280;27623;51.966;4.602;2022-08-05T04:20:54;-19370.59;;;20.55;79.06
41636;BME280;27623;51.966;4.602;2022-08-05T04:23:25;-19371.16;;;20.57;78.74
41636;BME280;27623;51.966;4.602;2022-08-05T04:25:51;-19369.44;;;20.51;78.86
41636;BME280;27623;51.966;4.602;2022-08-05T04:28:17;-19366.88;;;20.42;78.93
41636;BME280;27623;51.966;4.602;2022-08-05T04:30:43;-19367.88;;;20.45;78.67
41636;BME280;27623;51.966;4.602;2022-08-05T04:33:09;-19363.06;;;20.28;78.69
41636;BME280;27623;51.966;4.602;2022-08-05T04:35:38;-19356.38;;;20.04;80.07
41636;BME280;27623;51.966;4.602;2022-08-05T04:38:03;-19359.78;;;20.16;79.38
41636;BME280;27623;51.966;4.602;2022-08-05T04:40:32;-19361.63;;;20.23;78.71
41636;BME280;27623;51.966;4.602;2022-08-05T04:42:58;-19361.78;;;20.23;79.03
41636;BME280;27623;51.966;4.602;2022-08-05T04:45:26;-19359.66;;;20.16;79.19
41636;BME280;27623;51.966;4.602;2022-08-05T04:47:51;-19354.53;;;19.98;79.72
41636;BME280;27623;51.966;4.602;2022-08-05T04:50:17;-19354.38;;;19.97;79.56
41636;BME280;27623;51.966;4.602;2022-08-05T04:52:43;-19355.94;;;20.03;79.72
41636;BME280;27623;51.966;4.602;2022-08-05T04:55:09;-19356.66;;;20.05;79.74
41636;BME280;27623;51.966;4.602;2022-08-05T04:57:34;-19357.22;;;20.07;79.50
41636;BME280;27623;51.966;4.602;2022-08-05T05:00:00;-19358.66;;;20.12;78.72
41636;BME280;27623;51.966;4.602;2022-08-05T05:02:25;-19360.34;;;20.18;79.18
41636;BME280;27623;51.966;4.602;2022-08-05T05:04:51;-19358.09;;;20.10;79.40
41636;BME280;27623;51.966;4.602;2022-08-05T05:07:19;-19356.81;;;20.06;79.17
41636;BME280;27623;51.966;4.602;2022-08-05T05:09:45;-19359.50;;;20.15;79.16
41636;BME280;27623;51.966;4.602;2022-08-05T05:12:11;-19357.38;;;20.08;79.14
41636;BME280;27623;51.966;4.602;2022-08-05T05:14:36;-19354.09;;;19.96;79.81
41636;BME280;27623;51.966;4.602;2022-08-05T05:17:02;-19352.53;;;19.90;80.26
41636;BME280;27623;51.966;4.602;2022-08-05T05:19:27;-19355.53;;;20.01;79.87
41636;BME280;27623;51.966;4.602;2022-08-05T05:21:53;-19356.22;;;20.04;79.35
41636;BME280;27623;51.966;4.602;2022-08-05T05:24:18;-19357.38;;;20.08;79.21
41636;BME280;27623;51.966;4.602;2022-08-05T05:26:46;-19356.22;;;20.04;79.92
41636;BME280;27623;51.966;4.602;2022-08-05T05:29:11;-19358.50;;;20.12;79.16
41636;BME280;27623;51.966;4.602;2022-08-05T05:31:37;-19354.81;;;19.99;80.36
41636;BME280;27623;51.966;4.602;2022-08-05T05:34:03;-19349.41;;;19.79;80.35
41636;BME280;27623;51.966;4.602;2022-08-05T05:36:29;-19352.41;;;19.90;80.22
41636;BME280;27623;51.966;4.602;2022-08-05T05:38:55;-19354.25;;;19.97;80.04
41636;BME280;27623;51.966;4.602;2022-08-05T05:41:21;-19355.81;;;20.02;79.24
41636;BME280;27623;51.966;4.602;2022-08-05T05:43:47;-19353.53;;;19.94;79.39
41636;BME280;27623;51.966;4.602;2022-08-05T05:46:13;-19356.81;;;20.06;79.01
41636;BME280;27623;51.966;4.602;2022-08-05T05:48:38;-19354.53;;;19.98;79.16
41636;BME280;27623;51.966;4.602;2022-08-05T05:51:06;-19354.94;;;19.99;79.73
41636;BME280;27623;51.966;4.602;2022-08-05T05:53:34;-19360.78;;;20.20;78.36
41636;BME280;27623;51.966;4.602;2022-08-05T05:55:59;-19358.66;;;20.12;79.05
41636;BME280;27623;51.966;4.602;2022-08-05T05:58:25;-19355.09;;;20.00;79.54
41636;BME280;27623;51.966;4.602;2022-08-05T06:00:50;-19355.53;;;20.01;78.86
41636;BME280;27623;51.966;4.602;2022-08-05T06:03:15;-19355.81;;;20.02;79.31
41636;BME280;27623;51.966;4.602;2022-08-05T06:05:41;-19354.66;;;19.98;79.48
41636;BME280;27623;51.966;4.602;2022-08-05T06:08:06;-19357.50;;;20.08;78.93
41636;BME280;27623;51.966;4.602;2022-08-05T06:10:32;-19359.22;;;20.14;78.10
41636;BME280;27623;51.966;4.602;2022-08-05T06:12:58;-19361.34;;;20.22;77.45
41636;BME280;27623;51.966;4.602;2022-08-05T06:15:24;-19360.06;;;20.17;77.25
41636;BME280;27623;51.966;4.602;2022-08-05T06:17:49;-19361.91;;;20.24;76.97
41636;BME280;27623;51.966;4.602;2022-08-05T06:20:15;-19358.66;;;20.12;76.52
41636;BME280;27623;51.966;4.602;2022-08-05T06:22:40;-19358.78;;;20.13;76.64
41636;BME280;27623;51.966;4.602;2022-08-05T06:25:06;-19358.94;;;20.13;76.23
41636;BME280;27623;51.966;4.602;2022-08-05T06:27:33;-19358.78;;;20.13;77.08
41636;BME280;27623;51.966;4.602;2022-08-05T06:30:00;-19361.91;;;20.24;77.42
41636;BME280;27623;51.966;4.602;2022-08-05T06:32:25;-19363.06;;;20.28;76.48
41636;BME280;27623;51.966;4.602;2022-08-05T06:34:53;-19362.63;;;20.27;76.49
41636;BME280;27623;51.966;4.602;2022-08-05T06:37:19;-19363.19;;;20.29;76.15
41636;BME280;27623;51.966;4.602;2022-08-05T06:39:44;-19363.19;;;20.29;76.59
41636;BME280;27623;51.966;4.602;2022-08-05T06:42:09;-19362.06;;;20.24;77.54
41636;BME280;27623;51.966;4.602;2022-08-05T06:44:35;-19366.47;;;20.40;76.73
41636;BME280;27623;51.966;4.602;2022-08-05T06:47:00;-19366.03;;;20.39;75.89
41636;BME280;27623;51.966;4.602;2022-08-05T06:49:26;-19362.91;;;20.28;75.95
41636;BME280;27623;51.966;4.602;2022-08-05T06:51:51;-19365.75;;;20.38;75.70
41636;BME280;27623;51.966;4.602;2022-08-05T06:54:17;-19366.75;;;20.41;75.64
41636;BME280;27623;51.966;4.602;2022-08-05T06:56:42;-19365.75;;;20.38;75.20
41636;BME280;27623;51.966;4.602;2022-08-05T06:59:08;-19367.16;;;20.43;75.25
41636;BME280;27623;51.966;4.602;2022-08-05T07:01:34;-19368.31;;;20.47;74.17
41636;BME280;27623;51.966;4.602;2022-08-05T07:04:00;-19368.88;;;20.49;73.44
41636;BME280;27623;51.966;4.602;2022-08-05T07:06:26;-19369.00;;;20.49;73.21
41636;BME280;27623;51.966;4.602;2022-08-05T07:08:51;-19370.44;;;20.54;72.63
41636;BME280;27623;51.966;4.602;2022-08-05T07:11:18;-19370.28;;;20.54;72.45
41636;BME280;27623;51.966;4.602;2022-08-05T07:13:44;-19371.72;;;20.59;72.90
41636;BME280;27623;51.966;4.602;2022-08-05T07:16:28;-19373.69;;;20.66;71.78
41636;BME280;27623;51.966;4.602;2022-08-05T07:19:12;-19375.25;;;20.72;70.95
41636;BME280;27623;51.966;4.602;2022-08-05T07:21:38;-19376.97;;;20.78;70.60
41636;BME280;27623;51.966;4.602;2022-08-05T07:24:04;-19377.25;;;20.79;69.51
41636;BME280;27623;51.966;4.602;2022-08-05T07:26:31;-19376.69;;;20.77;69.21
41636;BME280;27623;51.966;4.602;2022-08-05T07:28:56;-19379.22;;;20.86;68.62
41636;BME280;27623;51.966;4.602;2022-08-05T07:31:21;-19381.50;;;20.94;67.36
41636;BME280;27623;51.966;4.602;2022-08-05T07:33:48;-19383.78;;;21.02;66.56
41636;BME280;27623;51.966;4.602;2022-08-05T07:36:14;-19387.47;;;21.15;64.49
41636;BME280;27623;51.966;4.602;2022-08-05T07:38:39;-19391.88;;;21.31;64.81
41636;BME280;27623;51.966;4.602;2022-08-05T07:41:08;-19393.72;;;21.38;62.40
41636;BME280;27623;51.966;4.602;2022-08-05T07:43:34;-19396.84;;;21.49;62.16
41636;BME280;27623;51.966;4.602;2022-08-05T07:46:00;-19397.81;;;21.52;61.74
41636;BME280;27623;51.966;4.602;2022-08-05T07:48:29;-19399.25;;;21.57;61.39
41636;BME280;27623;51.966;4.602;2022-08-05T07:50:54;-19400.81;;;21.63;61.74
41636;BME280;27623;51.966;4.602;2022-08-05T07:53:20;-19401.78;;;21.67;61.46
41636;BME280;27623;51.966;4.602;2022-08-05T07:55:45;-19403.63;;;21.73;62.47
41636;BME280;27623;51.966;4.602;2022-08-05T07:58:11;-19404.78;;;21.77;61.84
41636;BME280;27623;51.966;4.602;2022-08-05T08:00:36;-19406.47;;;21.83;62.12
41636;BME280;27623;51.966;4.602;2022-08-05T08:03:02;-19409.16;;;21.93;61.03
41636;BME280;27623;51.966;4.602;2022-08-05T08:05:27;-19409.88;;;21.95;59.99
41636;BME280;27623;51.966;4.602;2022-08-05T08:07:53;-19412.00;;;22.03;60.37
41636;BME280;27623;51.966;4.602;2022-08-05T08:10:21;-19412.44;;;22.05;60.25
41636;BME280;27623;51.966;4.602;2022-08-05T08:12:48;-19413.72;;;22.09;59.95
41636;BME280;27623;51.966;4.602;2022-08-05T08:15:14;-19412.56;;;22.05;60.42
41636;BME280;27623;51.966;4.602;2022-08-05T08:17:39;-19413.00;;;22.07;59.74
41636;BME280;27623;51.966;4.602;2022-08-05T08:20:05;-19414.84;;;22.13;59.02
41636;BME280;27623;51.966;4.602;2022-08-05T08:22:31;-19416.25;;;22.18;58.13
41636;BME280;27623;51.966;4.602;2022-08-05T08:24:56;-19416.97;;;22.21;58.33
41636;BME280;27623;51.966;4.602;2022-08-05T08:27:22;-19418.38;;;22.26;58.88
41636;BME280;27623;51.966;4.602;2022-08-05T08:29:48;-19419.81;;;22.31;60.87
41636;BME280;27623;51.966;4.602;2022-08-05T08:32:15;-19419.09;;;22.28;59.77
41636;BME280;27623;51.966;4.602;2022-08-05T08:34:41;-19420.78;;;22.35;59.31
41636;BME280;27623;51.966;4.602;2022-08-05T08:37:06;-19420.66;;;22.34;58.15
41636;BME280;27623;51.966;4.602;2022-08-05T08:39:34;-19422.34;;;22.40;58.21
41636;BME280;27623;51.966;4.602;2022-08-05T08:42:00;-19423.91;;;22.46;57.16
41636;BME280;27623;51.966;4.602;2022-08-05T08:44:29;-19423.22;;;22.43;57.34
41636;BME280;27623;51.966;4.602;2022-08-05T08:46:55;-19423.78;;;22.45;57.56
41636;BME280;27623;51.966;4.602;2022-08-05T08:49:22;-19422.78;;;22.42;57.02
41636;BME280;27623;51.966;4.602;2022-08-05T08:51:55;-19421.94;;;22.39;56.00
41636;BME280;27623;51.966;4.602;2022-08-05T08:54:24;-19417.69;;;22.23;54.14
41636;BME280;27623;51.966;4.602;2022-08-05T08:56:50;-19414.00;;;22.10;55.92
41636;BME280;27623;51.966;4.602;2022-08-05T08:59:19;-19413.72;;;22.09;54.76
41636;BME280;27623;51.966;4.602;2022-08-05T09:01:45;-19413.56;;;22.09;54.81
41636;BME280;27623;51.966;4.602;2022-08-05T09:04:12;-19413.00;;;22.07;54.97
41636;BME280;27623;51.966;4.602;2022-08-05T09:06:38;-19410.44;;;21.98;54.03
41636;BME280;27623;51.966;4.602;2022-08-05T09:09:04;-19410.88;;;21.99;53.37
41636;BME280;27623;51.966;4.602;2022-08-05T09:11:32;-19407.47;;;21.87;54.16
41636;BME280;27623;51.966;4.602;2022-08-05T09:13:58;-19406.47;;;21.83;55.72
41636;BME280;27623;51.966;4.602;2022-08-05T09:16:24;-19403.78;;;21.74;54.72
41636;BME280;27623;51.966;4.602;2022-08-05T09:18:50;-19403.22;;;21.72;55.91
41636;BME280;27623;51.966;4.602;2022-08-05T09:21:15;-19401.94;;;21.67;54.76
41636;BME280;27623;51.966;4.602;2022-08-05T09:23:44;-19400.66;;;21.63;55.40
41636;BME280;27623;51.966;4.602;2022-08-05T09:26:12;-19398.97;;;21.56;54.64
41636;BME280;27623;51.966;4.602;2022-08-05T09:28:41;-19398.69;;;21.55;54.38
41636;BME280;27623;51.966;4.602;2022-08-05T09:31:10;-19397.25;;;21.50;55.37
41636;BME280;27623;51.966;4.602;2022-08-05T09:33:56;-19395.97;;;21.46;55.92
41636;BME280;27623;51.966;4.602;2022-08-05T09:36:38;-19397.25;;;21.50;56.80
41636;BME280;27623;51.966;4.602;2022-08-05T09:39:08;-19396.84;;;21.49;56.86
41636;BME280;27623;51.966;4.602;2022-08-05T09:41:33;-19398.09;;;21.53;57.25
41636;BME280;27623;51.966;4.602;2022-08-05T09:43:59;-19401.22;;;21.65;57.11
41636;BME280;27623;51.966;4.602;2022-08-05T09:46:30;-19402.78;;;21.70;56.19
41636;BME280;27623;51.966;4.602;2022-08-05T09:49:01;-19401.78;;;21.67;56.28
41636;BME280;27623;51.966;4.602;2022-08-05T09:51:37;-19399.94;;;21.60;55.27
41636;BME280;27623;51.966;4.602;2022-08-05T09:54:04;-19400.94;;;21.64;55.53
41636;BME280;27623;51.966;4.602;2022-08-05T09:56:34;-19400.50;;;21.62;55.92
41636;BME280;27623;51.966;4.602;2022-08-05T10:01:32;-19399.53;;;21.58;53.83
41636;BME280;27623;51.966;4.602;2022-08-05T10:04:03;-19400.25;;;21.61;54.03
41636;BME280;27623;51.966;4.602;2022-08-05T10:06:30;-19402.78;;;21.70;53.38
41636;BME280;27623;51.966;4.602;2022-08-05T10:09:13;-19402.06;;;21.68;53.66
41636;BME280;27623;51.966;4.602;2022-08-05T10:11:39;-19404.78;;;21.77;54.20
41636;BME280;27623;51.966;4.602;2022-08-05T10:14:30;-19404.63;;;21.77;54.45
41636;BME280;27623;51.966;4.602;2022-08-05T10:17:11;-19407.47;;;21.87;54.32
41636;BME280;27623;51.966;4.602;2022-08-05T10:19:37;-19409.72;;;21.95;54.33
41636;BME280;27623;51.966;4.602;2022-08-05T10:22:03;-19411.59;;;22.02;54.48
41636;BME280;27623;51.966;4.602;2022-08-05T10:24:30;-19412.00;;;22.03;54.27
41636;BME280;27623;51.966;4.602;2022-08-05T10:26:56;-19412.00;;;22.03;53.67
41636;BME280;27623;51.966;4.602;2022-08-05T10:29:26;-19411.44;;;22.01;53.05
41636;BME280;27623;51.966;4.602;2022-08-05T10:31:54;-19413.41;;;22.08;53.08
41636;BME280;27623;51.966;4.602;2022-08-05T10:34:20;-19413.13;;;22.07;53.23
41636;BME280;27623;51.966;4.602;2022-08-05T10:36:49;-19412.28;;;22.04;53.66
41636;BME280;27623;51.966;4.602;2022-08-05T10:39:21;-19410.88;;;21.99;54.38
41636;BME280;27623;51.966;4.602;2022-08-05T10:41:55;-19409.72;;;21.95;52.33
41636;BME280;27623;51.966;4.602;2022-08-05T10:44:23;-19409.03;;;21.92;52.05
41636;BME280;27623;51.966;4.602;2022-08-05T10:46:52;-19407.75;;;21.88;52.12
41636;BME280;27623;51.966;4.602;2022-08-05T10:49:18;-19409.31;;;21.93;49.09
41636;BME280;27623;51.966;4.602;2022-08-05T10:51:54;-19409.59;;;21.94;45.74
41636;BME280;27623;51.966;4.602;2022-08-05T10:54:44;-19409.44;;;21.94;45.65
41636;BME280;27623;51.966;4.602;2022-08-05T10:57:12;-19409.31;;;21.93;46.32
41636;BME280;27623;51.966;4.602;2022-08-05T11:02:34;-19414.00;;;22.10;44.42
41636;BME280;27623;51.966;4.602;2022-08-05T11:05:04;-19417.97;;;22.24;41.74
41636;BME280;27623;51.966;4.602;2022-08-05T11:07:30;-19422.22;;;22.40;42.58
41636;BME280;27623;51.966;4.602;2022-08-05T11:09:55;-19423.78;;;22.45;42.56
41636;BME280;27623;51.966;4.602;2022-08-05T11:15:09;-19430.28;;;22.69;44.34
41636;BME280;27623;51.966;4.602;2022-08-05T11:17:40;-19432.00;;;22.75;43.45
41636;BME280;27623;51.966;4.602;2022-08-05T11:22:56;-19437.09;;;22.93;44.83
41636;BME280;27623;51.966;4.602;2022-08-05T11:25:37;-19437.09;;;22.93;44.93
41636;BME280;27623;51.966;4.602;2022-08-05T11:33:30;-19447.84;;;23.31;45.61
41636;BME280;27623;51.966;4.602;2022-08-05T11:35:57;-19450.25;;;23.40;45.18
41636;BME280;27623;51.966;4.602;2022-08-05T11:41:13;-19451.53;;;23.45;45.44
41636;BME280;27623;51.966;4.602;2022-08-05T11:46:50;-19452.53;;;23.48;43.82
41636;BME280;27623;51.966;4.602;2022-08-05T11:49:16;-19456.91;;;23.64;44.72
41636;BME280;27623;51.966;4.602;2022-08-05T11:51:46;-19459.31;;;23.73;43.89
41636;BME280;27623;51.966;4.602;2022-08-05T11:54:26;-19458.19;;;23.69;43.75
41636;BME280;27623;51.966;4.602;2022-08-05T11:56:54;-19460.31;;;23.76;43.73
41636;BME280;27623;51.966;4.602;2022-08-05T11:59:25;-19463.00;;;23.86;45.05
41636;BME280;27623;51.966;4.602;2022-08-05T12:01:56;-19463.16;;;23.86;45.51
41636;BME280;27623;51.966;4.602;2022-08-05T12:04:23;-19468.66;;;24.06;46.21
41636;BME280;27623;51.966;4.602;2022-08-05T12:06:48;-19481.81;;;24.53;45.90
41636;BME280;27623;51.966;4.602;2022-08-05T12:09:22;-19492.84;;;24.93;44.12
41636;BME280;27623;51.966;4.602;2022-08-05T12:11:49;-19506.13;;;25.41;43.51
41636;BME280;27623;51.966;4.602;2022-08-05T12:14:14;-19513.91;;;25.68;42.78
41636;BME280;27623;51.966;4.602;2022-08-05T12:16:42;-19519.44;;;25.88;41.12
41636;BME280;27623;51.966;4.602;2022-08-05T12:19:09;-19527.19;;;26.16;37.92
41636;BME280;27623;51.966;4.602;2022-08-05T12:21:45;-19535.25;;;26.45;36.12
41636;BME280;27623;51.966;4.602;2022-08-05T12:24:19;-19537.09;;;26.52;36.93
41636;BME280;27623;51.966;4.602;2022-08-05T12:26:46;-19541.16;;;26.66;37.57
41636;BME280;27623;51.966;4.602;2022-08-05T12:29:20;-19547.81;;;26.90;37.37
41636;BME280;27623;51.966;4.602;2022-08-05T12:34:17;-19545.81;;;26.83;35.12
41636;BME280;27623;51.966;4.602;2022-08-05T12:36:44;-19542.59;;;26.72;34.58
41636;BME280;27623;51.966;4.602;2022-08-05T12:39:11;-19537.94;;;26.55;33.12
41636;BME280;27623;51.966;4.602;2022-08-05T12:41:38;-19540.47;;;26.64;33.22
41636;BME280;27623;51.966;4.602;2022-08-05T12:44:06;-19548.38;;;26.92;33.58
41636;BME280;27623;51.966;4.602;2022-08-05T12:46:34;-19553.59;;;27.11;33.40
41636;BME280;27623;51.966;4.602;2022-08-05T12:49:01;-19563.88;;;27.48;33.57
41636;BME280;27623;51.966;4.602;2022-08-05T12:51:28;-19572.22;;;27.78;33.65
41636;BME280;27623;51.966;4.602;2022-08-05T12:54:00;-19575.44;;;27.90;34.20
41636;BME280;27623;51.966;4.602;2022-08-05T12:56:28;-19575.16;;;27.89;33.84
41636;BME280;27623;51.966;4.602;2022-08-05T12:59:14;-19566.00;;;27.56;35.62
41636;BME280;27623;51.966;4.602;2022-08-05T13:01:52;-19557.25;;;27.24;35.75
41636;BME280;27623;51.966;4.602;2022-08-05T13:04:24;-19560.78;;;27.37;35.52
41636;BME280;27623;51.966;4.602;2022-08-05T13:06:56;-19564.88;;;27.52;34.45
41636;BME280;27623;51.966;4.602;2022-08-05T13:09:22;-19568.97;;;27.66;35.85
41636;BME280;27623;51.966;4.602;2022-08-05T13:11:47;-19572.06;;;27.78;34.70
41636;BME280;27623;51.966;4.602;2022-08-05T13:17:00;-19554.44;;;27.14;35.60
41636;BME280;27623;51.966;4.602;2022-08-05T13:19:27;-19568.28;;;27.64;35.52
41636;BME280;27623;51.966;4.602;2022-08-05T13:21:56;-19571.38;;;27.75;34.79
41636;BME280;27623;51.966;4.602;2022-08-05T13:24:22;-19569.97;;;27.70;35.37
41636;BME280;27623;51.966;4.602;2022-08-05T13:26:48;-19566.28;;;27.57;35.68
41636;BME280;27623;51.966;4.602;2022-08-05T13:29:14;-19548.50;;;26.93;36.04